Time;durP1;ratioP1;P1;durP2;ratioP2;P2;SDS_P1;SDS_P2;PMS_P1;PMS_P2;Temp;Humidity;BMP_temperature;BMP_pressure;BME280_temperature;BME280_humidity;BME280_pressure;Samples;Min_cycle;Max_cycle;Signal;HPM_P1;HPM_P2
2022/01/01 00:01:12;;;;;;;21.95;8.52;;;11.30;90.50;;;;;;5105779;27;20476;-45
2022/01/01 00:03:39;;;;;;;;;;;11.30;90.30;;;;;;5113954;27;20104;-45
2022/01/01 00:06:05;;;;;;;22.25;8.30;;;11.20;90.30;;;;;;5117957;27;19944;-49
2022/01/01 00:08:34;;;;;;;27.55;10.52;;;11.30;90.30;;;;;;5114732;28;20031;-43
2022/01/01 00:11:01;;;;;;;19.98;8.48;;;11.30;90.30;;;;;;5111387;28;20066;-44
2022/01/01 00:13:27;;;;;;;28.13;9.15;;;11.20;90.30;;;;;;5077271;28;20177;-45
2022/01/01 00:15:54;;;;;;;25.17;8.43;;;11.30;90.40;;;;;;5077352;28;20609;-46
2022/01/01 00:18:21;;;;;;;21.80;8.70;;;11.20;90.40;;;;;;5072666;28;20500;-45
2022/01/01 00:20:48;;;;;;;24.63;7.47;;;11.20;90.40;;;;;;5109066;28;20024;-45
2022/01/01 00:23:15;;;;;;;22.15;8.60;;;11.30;90.60;;;;;;5104706;28;20068;-46
2022/01/01 00:25:42;;;;;;;14.73;8.57;;;11.30;90.60;;;;;;5099618;27;20103;-45
2022/01/01 00:28:12;;;;;;;28.80;11.13;;;11.30;90.60;;;;;;5097048;28;20035;-44
2022/01/01 00:30:39;;;;;;;27.42;11.32;;;11.30;90.60;;;;;;5111533;28;20036;-46
2022/01/01 00:33:06;;;;;;;25.92;12.63;;;11.30;90.70;;;;;;5102956;27;20376;-46
2022/01/01 00:35:32;;;;;;;30.05;12.95;;;11.30;90.80;;;;;;5101954;28;20032;-44
2022/01/01 00:37:59;;;;;;;26.17;11.68;;;11.40;90.70;;;;;;5085548;28;20038;-45
2022/01/01 00:40:25;;;;;;;30.42;10.20;;;11.30;90.80;;;;;;5106886;28;20120;-46
2022/01/01 00:42:51;;;;;;;14.88;8.02;;;11.30;90.80;;;;;;5075942;28;20630;-44
2022/01/01 00:45:17;;;;;;;19.58;9.98;;;11.30;90.80;;;;;;5110096;28;20128;-49
2022/01/01 00:47:44;;;;;;;24.08;11.45;;;11.30;90.90;;;;;;5097669;28;20035;-46
2022/01/01 00:50:11;;;;;;;26.10;13.13;;;11.30;90.90;;;;;;5095662;27;20019;-46
2022/01/01 00:52:37;;;;;;;25.77;13.30;;;11.30;90.90;;;;;;5107720;27;20049;-45
2022/01/01 00:55:04;;;;;;;28.33;15.23;;;11.20;91.00;;;;;;5084295;28;20107;-44
2022/01/01 00:57:31;;;;;;;22.27;14.95;;;11.20;91.00;;;;;;5098797;28;20031;-51
2022/01/01 00:59:56;;;;;;;31.77;14.55;;;11.30;91.10;;;;;;5095459;27;20072;-46
2022/01/01 01:02:23;;;;;;;23.90;14.63;;;11.30;91.10;;;;;;5105465;27;20031;-46
2022/01/01 01:04:52;;;;;;;35.67;16.38;;;11.20;91.10;;;;;;5114519;28;20051;-47
2022/01/01 01:07:19;;;;;;;27.48;14.25;;;11.30;91.10;;;;;;5108185;27;20036;-48
2022/01/01 01:09:46;;;;;;;22.38;13.02;;;11.30;91.20;;;;;;5077536;28;20059;-46
2022/01/01 01:12:20;;;;;;;31.08;14.48;;;11.30;91.10;;;;;;5111288;28;20040;-46
2022/01/01 01:14:47;;;;;;;28.15;13.38;;;11.30;91.10;;;;;;5094836;28;20514;-44
2022/01/01 01:17:16;;;;;;;26.40;13.57;;;11.30;91.10;;;;;;5104927;28;20146;-48
2022/01/01 01:19:43;;;;;;;28.55;13.00;;;11.30;91.20;;;;;;5094776;28;20032;-46
2022/01/01 01:22:10;;;;;;;30.17;14.15;;;11.30;91.20;;;;;;5096823;28;20040;-49
2022/01/01 01:24:39;;;;;;;25.30;13.00;;;11.30;91.10;;;;;;5077005;28;20028;-45
2022/01/01 01:27:06;;;;;;;30.95;12.40;;;11.30;91.10;;;;;;5095073;28;20083;-46
2022/01/01 01:29:37;;;;;;;26.73;12.18;;;11.30;91.10;;;;;;5104078;28;20067;-45
2022/01/01 01:32:04;;;;;;;29.33;11.77;;;11.30;91.10;;;;;;5099599;28;20051;-44
2022/01/01 01:34:31;;;;;;;30.33;12.10;;;11.30;91.10;;;;;;5102843;27;20368;-46
2022/01/01 01:36:58;;;;;;;29.90;12.20;;;11.20;91.10;;;;;;5097822;28;20025;-47
2022/01/01 01:39:24;;;;;;;30.02;10.50;;;11.30;91.00;;;;;;5106937;28;20028;-47
2022/01/01 01:41:52;;;;;;;31.80;12.85;;;11.20;91.00;;;;;;5099475;28;20043;-44
2022/01/01 01:44:36;;;;;;;25.05;11.23;;;11.20;91.00;;;;;;5077791;28;20036;-44
2022/01/01 01:47:13;;;;;;;24.88;12.68;;;11.30;91.10;;;;;;5094316;27;20028;-43
2022/01/01 01:49:39;;;;;;;26.70;11.60;;;11.20;91.00;;;;;;5095158;28;20024;-46
2022/01/01 01:52:07;;;;;;;33.33;16.08;;;11.30;91.00;;;;;;5105258;28;20836;-45
2022/01/01 01:54:35;;;;;;;28.02;12.43;;;11.30;91.00;;;;;;5109108;28;20043;-45
2022/01/01 01:57:03;;;;;;;30.95;13.02;;;11.30;90.90;;;;;;5094257;28;20103;-45
2022/01/01 01:59:30;;;;;;;24.45;12.07;;;11.30;90.90;;;;;;5091838;28;20046;-46
2022/01/01 02:01:57;;;;;;;28.98;13.38;;;11.20;90.90;;;;;;5094749;28;20101;-45
2022/01/01 02:04:24;;;;;;;34.10;14.13;;;11.20;90.90;;;;;;5094070;28;20082;-46
2022/01/01 02:06:50;;;;;;;33.63;14.85;;;11.20;90.90;;;;;;5101053;28;20373;-45
2022/01/01 02:09:16;;;;;;;28.02;12.98;;;11.30;90.90;;;;;;5094383;28;20032;-46
2022/01/01 02:11:44;;;;;;;27.05;13.50;;;11.30;90.90;;;;;;5094442;28;20451;-46
2022/01/01 02:14:24;;;;;;;31.35;13.75;;;11.30;90.90;;;;;;5107890;28;20058;-44
2022/01/01 02:17:08;;;;;;;29.15;14.63;;;11.30;90.90;;;;;;5111385;27;20032;-44
2022/01/01 02:20:09;;;;;;;26.70;16.15;;;11.30;90.90;;;;;;5093475;28;20024;-48
2022/01/01 02:22:49;;;;;;;25.58;14.45;;;11.30;90.90;;;;;;5093201;28;20040;-43
2022/01/01 02:25:17;;;;;;;;;;;11.30;90.80;;;;;;5094624;28;20106;-44
2022/01/01 02:27:44;;;;;;;33.22;15.60;;;11.30;90.80;;;;;;5104143;27;19907;-47
2022/01/01 02:30:14;;;;;;;29.73;16.10;;;11.30;90.80;;;;;;5123250;27;20020;-46
2022/01/01 02:32:40;;;;;;;30.10;15.27;;;11.20;90.80;;;;;;5106974;28;20039;-44
2022/01/01 02:35:09;;;;;;;36.75;18.45;;;11.20;90.80;;;;;;5112863;28;20028;-46
2022/01/01 02:37:40;;;;;;;27.50;17.85;;;11.20;90.90;;;;;;5098892;28;20024;-50
2022/01/01 02:40:09;;;;;;;34.88;19.08;;;11.20;90.90;;;;;;5093956;28;20016;-44
2022/01/01 02:42:38;;;;;;;37.97;19.05;;;11.10;90.90;;;;;;5093754;28;20118;-45
2022/01/01 02:45:08;;;;;;;37.38;19.65;;;11.20;90.90;;;;;;5106043;28;20040;-45
2022/01/01 02:47:35;;;;;;;41.42;21.75;;;11.10;90.90;;;;;;5096853;28;20024;-44
2022/01/01 02:50:04;;;;;;;38.63;19.80;;;11.10;90.90;;;;;;5093621;28;20043;-44
2022/01/01 02:52:31;;;;;;;34.28;21.75;;;11.10;90.90;;;;;;5096744;28;20115;-45
2022/01/01 02:54:58;;;;;;;42.13;22.85;;;11.10;90.90;;;;;;5095859;28;20031;-46
2022/01/01 02:57:25;;;;;;;43.67;21.10;;;11.10;91.00;;;;;;5103349;28;20062;-43
2022/01/01 02:59:52;;;;;;;41.45;23.88;;;11.00;90.90;;;;;;5095764;28;20020;-44
2022/01/01 03:02:17;;;;;;;40.22;23.50;;;11.00;91.00;;;;;;5084187;28;20039;-44
2022/01/01 03:04:44;;;;;;;42.45;22.88;;;11.00;91.00;;;;;;5095186;28;20368;-46
2022/01/01 03:07:13;;;;;;;35.08;22.80;;;11.10;91.10;;;;;;5103891;28;20500;-45
2022/01/01 03:09:39;;;;;;;45.58;23.73;;;11.00;91.00;;;;;;5096245;28;20035;-44
2022/01/01 03:12:11;;;;;;;44.53;24.27;;;11.00;91.00;;;;;;5081716;28;20047;-47
2022/01/01 03:14:38;;;;;;;39.00;25.05;;;11.00;91.00;;;;;;5093617;28;20467;-47
2022/01/01 03:17:06;;;;;;;47.30;27.75;;;11.10;91.00;;;;;;5091572;28;20024;-44
2022/01/01 03:19:35;;;;;;;46.53;26.75;;;11.00;91.00;;;;;;5106042;28;20032;-46
2022/01/01 03:22:03;;;;;;;46.30;25.23;;;11.00;91.00;;;;;;5093101;28;20471;-46
2022/01/01 03:24:30;;;;;;;45.92;26.55;;;11.00;91.00;;;;;;5093113;28;20042;-44
2022/01/01 03:26:57;;;;;;;50.38;26.05;;;11.00;91.00;;;;;;5104685;28;20024;-44
2022/01/01 03:29:23;;;;;;;39.00;26.90;;;11.00;91.00;;;;;;5112918;28;20108;-48
2022/01/01 03:31:50;;;;;;;43.28;27.20;;;11.00;91.10;;;;;;5111905;28;20367;-48
2022/01/01 03:34:17;;;;;;;43.58;26.67;;;11.00;91.00;;;;;;5074832;28;20039;-48
2022/01/01 03:36:44;;;;;;;39.22;24.95;;;10.90;91.00;;;;;;5074748;28;20056;-47
2022/01/01 03:39:11;;;;;;;44.47;26.17;;;10.90;91.10;;;;;;5075088;28;20453;-48
2022/01/01 03:41:38;;;;;;;44.33;26.55;;;10.90;91.00;;;;;;5092828;28;20044;-47
2022/01/01 03:44:05;;;;;;;49.20;28.67;;;10.90;91.00;;;;;;5077722;28;20101;-46
2022/01/01 03:46:35;;;;;;;50.10;27.92;;;10.90;91.10;;;;;;5096630;28;20024;-49
2022/01/01 03:49:01;;;;;;;52.83;28.83;;;10.90;91.20;;;;;;5077153;28;20445;-47
2022/01/01 03:51:28;;;;;;;43.72;26.92;;;10.90;91.30;;;;;;5062997;28;20384;-48
2022/01/01 03:53:55;;;;;;;38.17;23.85;;;10.80;91.30;;;;;;5099565;28;20087;-44
2022/01/01 03:56:22;;;;;;;43.92;24.40;;;10.90;91.30;;;;;;5096389;28;20051;-46
2022/01/01 03:58:49;;;;;;;45.60;24.83;;;10.80;91.30;;;;;;5096327;28;20036;-44
2022/01/01 04:01:15;;;;;;;48.72;22.83;;;10.90;91.30;;;;;;5078403;28;20093;-45
2022/01/01 04:03:43;;;;;;;43.70;22.08;;;10.80;91.30;;;;;;5096192;28;20101;-44
2022/01/01 04:06:13;;;;;;;46.53;22.23;;;10.80;91.30;;;;;;5082870;28;20104;-44
2022/01/01 04:08:39;;;;;;;43.95;22.17;;;10.90;91.30;;;;;;5102388;27;20091;-44
2022/01/01 04:11:06;;;;;;;49.33;22.45;;;10.80;91.30;;;;;;5096384;27;20050;-44
2022/01/01 04:13:33;;;;;;;40.65;23.08;;;10.80;91.30;;;;;;5096023;28;20040;-45
2022/01/01 04:15:59;;;;;;;46.13;23.45;;;10.80;91.30;;;;;;5095255;28;20028;-45
2022/01/01 04:18:29;;;;;;;48.50;21.55;;;10.70;91.30;;;;;;5114407;28;20058;-44
2022/01/01 04:20:56;;;;;;;50.90;21.15;;;10.80;91.30;;;;;;5113408;28;20119;-44
2022/01/01 04:23:23;;;;;;;40.67;19.98;;;10.80;91.30;;;;;;5104572;28;20036;-44
2022/01/01 04:25:50;;;;;;;39.53;20.35;;;10.90;91.30;;;;;;5080295;27;20040;-47
2022/01/01 04:28:17;;;;;;;43.60;20.23;;;10.80;91.30;;;;;;5105912;27;20496;-45
2022/01/01 04:30:44;;;;;;;47.08;21.90;;;10.80;91.20;;;;;;5095338;28;20039;-45
2022/01/01 04:33:10;;;;;;;40.90;20.63;;;10.80;91.30;;;;;;5099059;28;20040;-44
2022/01/01 04:35:36;;;;;;;43.22;21.50;;;10.80;91.40;;;;;;5095705;28;20056;-45
2022/01/01 04:38:13;;;;;;;43.08;21.05;;;10.80;91.20;;;;;;5097117;27;20059;-46
2022/01/01 04:40:40;;;;;;;40.22;21.23;;;10.80;91.20;;;;;;5096936;28;21767;-44
2022/01/01 04:43:06;;;;;;;43.75;20.30;;;10.80;91.30;;;;;;5104249;28;20044;-45
2022/01/01 04:45:32;;;;;;;38.05;20.42;;;10.80;91.30;;;;;;5095705;28;20043;-45
2022/01/01 04:48:00;;;;;;;43.42;20.45;;;10.80;91.30;;;;;;5096061;28;20147;-45
2022/01/01 04:50:27;;;;;;;40.70;19.38;;;10.70;91.30;;;;;;5091285;28;20036;-45
2022/01/01 04:52:55;;;;;;;45.97;21.80;;;10.70;91.30;;;;;;5095204;28;20029;-46
2022/01/01 04:55:23;;;;;;;36.88;20.65;;;10.70;91.30;;;;;;5105964;28;20031;-48
2022/01/01 04:57:50;;;;;;;42.70;19.95;;;10.70;91.30;;;;;;5095591;28;20314;-46
2022/01/01 05:00:17;;;;;;;44.03;22.10;;;10.70;91.30;;;;;;5075813;28;20099;-45
2022/01/01 05:02:47;;;;;;;42.63;21.45;;;10.70;91.30;;;;;;5112477;28;20040;-45
2022/01/01 05:05:13;;;;;;;46.22;23.25;;;10.70;91.40;;;;;;5114928;28;20115;-49
2022/01/01 05:07:39;;;;;;;45.97;20.90;;;10.70;91.40;;;;;;5101515;28;20100;-43
2022/01/01 05:10:05;;;;;;;45.65;23.48;;;10.70;91.50;;;;;;5115544;28;20032;-46
2022/01/01 05:12:32;;;;;;;52.35;23.05;;;10.70;91.60;;;;;;5088715;28;20124;-48
2022/01/01 05:14:58;;;;;;;53.45;24.90;;;10.70;91.60;;;;;;5095681;28;20468;-47
2022/01/01 05:17:24;;;;;;;56.08;26.75;;;10.70;91.70;;;;;;5113818;27;20032;-45
2022/01/01 05:19:51;;;;;;;60.15;28.08;;;10.70;91.80;;;;;;5097420;28;20089;-46
2022/01/01 05:22:18;;;;;;;53.08;25.63;;;10.70;91.80;;;;;;5107987;27;20482;-45
2022/01/01 05:24:47;;;;;;;51.20;25.30;;;10.70;91.90;;;;;;5096517;28;20107;-45
2022/01/01 05:27:16;;;;;;;63.20;28.55;;;10.70;91.90;;;;;;5110357;27;20032;-45
2022/01/01 05:29:43;;;;;;;61.97;29.73;;;10.70;92.00;;;;;;5094296;28;20453;-46
2022/01/01 05:32:10;;;;;;;65.88;27.67;;;10.80;92.00;;;;;;5102326;28;20058;-45
2022/01/01 05:34:36;;;;;;;65.57;29.25;;;10.70;92.00;;;;;;5103095;28;20083;-47
2022/01/01 05:37:04;;;;;;;55.35;27.38;;;10.80;92.00;;;;;;5103214;28;20040;-49
2022/01/01 05:39:30;;;;;;;57.55;29.45;;;10.70;92.10;;;;;;5093151;28;20027;-47
2022/01/01 05:41:57;;;;;;;65.82;32.13;;;10.80;92.10;;;;;;5083946;28;20056;-47
2022/01/01 05:44:23;;;;;;;58.00;28.67;;;10.80;92.10;;;;;;5107049;28;20047;-45
2022/01/01 05:46:50;;;;;;;62.63;30.52;;;10.80;92.10;;;;;;5113715;28;20047;-48
2022/01/01 05:49:17;;;;;;;62.00;29.45;;;10.80;92.10;;;;;;5109186;28;20020;-45
2022/01/01 05:51:44;;;;;;;68.75;30.52;;;10.80;92.10;;;;;;5108969;27;20061;-46
2022/01/01 05:54:10;;;;;;;64.90;31.65;;;10.80;92.10;;;;;;5089070;28;20463;-47
2022/01/01 05:56:39;;;;;;;59.38;29.52;;;10.80;92.10;;;;;;5110069;28;20024;-48
2022/01/01 05:59:08;;;;;;;62.38;28.10;;;10.80;92.10;;;;;;5097769;28;20043;-47
2022/01/01 06:01:35;;;;;;;66.22;31.48;;;10.80;92.10;;;;;;5112726;28;20054;-44
2022/01/01 06:04:01;;;;;;;64.78;29.60;;;10.80;92.20;;;;;;5113241;28;20036;-48
2022/01/01 06:06:28;;;;;;;61.50;28.48;;;10.80;92.10;;;;;;5096036;28;20114;-50
2022/01/01 06:09:01;;;;;;;70.85;29.08;;;10.80;92.10;;;;;;5093542;27;20119;-46
2022/01/01 06:11:31;;;;;;;58.72;29.30;;;10.80;92.10;;;;;;5093898;28;20032;-46
2022/01/01 06:13:57;;;;;;;56.70;26.70;;;10.80;92.10;;;;;;5079133;28;20047;-47
2022/01/01 06:16:24;;;;;;;80.13;31.05;;;10.80;92.10;;;;;;5112710;28;20036;-45
2022/01/01 06:18:50;;;;;;;62.70;27.35;;;10.80;92.10;;;;;;5087840;28;20028;-49
2022/01/01 06:21:18;;;;;;;61.15;27.38;;;10.90;92.10;;;;;;5080710;28;20038;-48
2022/01/01 06:23:45;;;;;;;71.38;28.20;;;10.80;92.10;;;;;;5107378;28;20047;-45
2022/01/01 06:26:11;;;;;;;62.40;27.70;;;10.90;92.10;;;;;;5095453;27;20435;-48
2022/01/01 06:28:38;;;;;;;65.45;28.92;;;10.90;92.10;;;;;;5080816;28;20036;-51
2022/01/01 06:31:05;;;;;;;58.05;27.20;;;10.90;92.00;;;;;;5075354;28;20122;-48
2022/01/01 06:33:30;;;;;;;64.75;27.58;;;10.90;92.00;;;;;;5102338;28;20035;-48
2022/01/01 06:35:57;;;;;;;66.70;29.35;;;10.90;92.00;;;;;;5094335;28;20024;-46
2022/01/01 06:38:24;;;;;;;61.38;28.23;;;10.90;92.00;;;;;;5098106;28;20449;-45
2022/01/01 06:40:50;;;;;;;49.92;26.48;;;10.90;91.90;;;;;;5078470;28;20070;-49
2022/01/01 06:43:18;;;;;;;60.20;27.95;;;10.90;91.90;;;;;;5096665;28;20052;-49
2022/01/01 06:45:45;;;;;;;61.45;28.70;;;10.90;92.00;;;;;;5112640;28;20027;-49
2022/01/01 06:48:14;;;;;;;62.45;31.02;;;10.80;92.00;;;;;;5100850;28;20032;-50
2022/01/01 06:50:41;;;;;;;64.13;29.90;;;10.90;92.00;;;;;;5093232;28;20077;-50
2022/01/01 06:53:10;;;;;;;61.35;28.92;;;10.90;92.00;;;;;;5073012;28;20036;-45
2022/01/01 06:55:37;;;;;;;64.20;31.83;;;10.80;91.90;;;;;;5112242;28;20081;-46
2022/01/01 06:58:04;;;;;;;74.00;31.77;;;10.90;92.00;;;;;;5095832;28;20032;-44
2022/01/01 07:00:31;;;;;;;75.35;33.08;;;10.80;91.90;;;;;;5094340;28;20032;-45
2022/01/01 07:02:57;;;;;;;64.00;32.17;;;10.80;91.90;;;;;;5106570;28;20558;-45
2022/01/01 07:05:24;;;;;;;61.58;34.28;;;10.80;92.00;;;;;;5107275;28;20036;-47
2022/01/01 07:07:51;;;;;;;69.13;34.40;;;10.80;91.90;;;;;;5102577;28;20040;-46
2022/01/01 07:10:17;;;;;;;59.80;32.90;;;10.80;91.90;;;;;;5099376;28;20044;-48
2022/01/01 07:12:44;;;;;;;70.85;35.05;;;10.80;92.00;;;;;;5087838;28;20076;-45
2022/01/01 07:15:11;;;;;;;72.38;33.08;;;10.80;91.90;;;;;;5101166;28;20673;-46
2022/01/01 07:17:37;;;;;;;70.20;33.33;;;10.80;91.90;;;;;;5097426;28;20098;-47
2022/01/01 07:20:05;;;;;;;74.00;34.78;;;10.80;91.90;;;;;;5097116;28;20358;-45
2022/01/01 07:22:32;;;;;;;73.78;34.25;;;10.80;91.90;;;;;;5094974;28;20047;-48
2022/01/01 07:25:00;;;;;;;66.03;33.25;;;10.80;91.90;;;;;;5083639;28;20036;-45
2022/01/01 07:27:27;;;;;;;78.88;35.55;;;10.80;91.80;;;;;;5113115;27;20024;-47
2022/01/01 07:29:54;;;;;;;76.63;36.20;;;10.80;91.90;;;;;;5110626;28;20035;-46
2022/01/01 07:32:19;;;;;;;66.63;33.65;;;10.80;91.90;;;;;;5113695;28;20067;-45
2022/01/01 07:34:45;;;;;;;69.50;35.15;;;10.80;91.90;;;;;;5095865;28;20054;-48
2022/01/01 07:37:11;;;;;;;82.55;38.13;;;10.80;92.00;;;;;;5092775;28;20436;-48
2022/01/01 07:39:38;;;;;;;80.60;36.78;;;10.80;91.90;;;;;;5116004;28;20097;-50
2022/01/01 07:42:05;;;;;;;77.15;35.92;;;10.80;91.90;;;;;;5105307;27;20028;-48
2022/01/01 07:44:32;;;;;;;72.78;35.83;;;10.90;92.00;;;;;;5098683;28;20491;-45
2022/01/01 07:46:58;;;;;;;70.60;35.78;;;10.90;91.90;;;;;;5097618;28;20032;-49
2022/01/01 07:49:25;;;;;;;79.55;37.92;;;10.90;91.90;;;;;;5096665;28;20032;-45
2022/01/01 07:51:52;;;;;;;81.07;39.60;;;10.90;91.90;;;;;;5096903;28;20097;-46
2022/01/01 07:54:17;;;;;;;83.43;41.03;;;10.90;91.80;;;;;;5107698;28;20047;-45
2022/01/01 07:56:44;;;;;;;75.93;36.60;;;10.80;91.80;;;;;;5111630;28;20506;-46
2022/01/01 07:59:11;;;;;;;78.82;40.55;;;10.90;91.80;;;;;;5109152;27;20549;-45
2022/01/01 08:01:39;;;;;;;73.65;37.00;;;10.90;91.80;;;;;;5110076;28;20142;-48
2022/01/01 08:04:05;;;;;;;72.55;40.17;;;10.90;91.80;;;;;;5112366;27;20020;-51
2022/01/01 08:06:33;;;;;;;77.78;44.08;;;10.90;91.80;;;;;;5111628;27;20342;-45
2022/01/01 08:08:59;;;;;;;88.20;44.00;;;10.90;91.80;;;;;;5107196;28;20039;-46
2022/01/01 08:11:26;;;;;;;73.93;43.17;;;10.90;91.70;;;;;;5094561;28;20032;-45
2022/01/01 08:13:53;;;;;;;86.45;44.70;;;10.90;91.80;;;;;;5113332;28;20063;-48
2022/01/01 08:16:23;;;;;;;82.93;46.22;;;10.90;91.80;;;;;;5116211;28;20030;-46
2022/01/01 08:18:50;;;;;;;77.75;46.50;;;10.90;91.70;;;;;;5109780;28;20070;-49
2022/01/01 08:21:17;;;;;;;96.72;48.83;;;10.90;91.70;;;;;;5090038;28;20567;-46
2022/01/01 08:23:44;;;;;;;88.53;48.78;;;10.90;91.80;;;;;;5101816;28;20040;-44
2022/01/01 08:26:11;;;;;;;86.88;50.08;;;10.90;91.80;;;;;;5115094;27;20082;-48
2022/01/01 08:28:38;;;;;;;90.60;49.60;;;10.90;91.80;;;;;;5116189;27;20063;-47
2022/01/01 08:31:06;;;;;;;77.10;47.40;;;10.90;91.80;;;;;;5095975;28;20031;-45
2022/01/01 08:33:33;;;;;;;92.88;50.08;;;10.90;91.80;;;;;;5090797;28;20024;-44
2022/01/01 08:36:03;;;;;;;92.40;49.17;;;10.90;91.80;;;;;;5087501;27;20031;-45
2022/01/01 08:38:31;;;;;;;79.72;46.50;;;10.90;91.80;;;;;;5107448;28;20020;-47
2022/01/01 08:41:01;;;;;;;83.93;46.85;;;10.90;91.80;;;;;;5097656;27;20028;-50
2022/01/01 08:43:27;;;;;;;74.93;44.58;;;11.00;91.80;;;;;;5107698;28;20052;-46
2022/01/01 08:45:54;;;;;;;76.75;43.20;;;11.00;91.80;;;;;;5096522;27;20027;-46
2022/01/01 08:48:21;;;;;;;77.57;44.95;;;11.10;91.70;;;;;;5076917;28;20040;-50
2022/01/01 08:50:48;;;;;;;73.30;43.30;;;11.10;91.60;;;;;;5083306;28;20032;-45
2022/01/01 08:53:16;;;;;;;71.15;40.20;;;11.10;91.50;;;;;;5106715;27;20111;-49
2022/01/01 08:55:43;;;;;;;65.20;41.35;;;11.10;91.50;;;;;;5095113;28;20103;-45
2022/01/01 08:58:10;;;;;;;67.95;39.30;;;11.10;91.50;;;;;;5085036;28;20039;-50
2022/01/01 09:00:37;;;;;;;64.30;39.42;;;11.20;91.40;;;;;;5088896;28;20023;-47
2022/01/01 09:03:04;;;;;;;67.07;35.95;;;11.20;91.40;;;;;;5111776;27;20074;-51
2022/01/01 09:05:30;;;;;;;60.65;35.67;;;11.20;91.40;;;;;;5086125;28;20550;-45
2022/01/01 09:07:57;;;;;;;65.57;35.30;;;11.30;91.30;;;;;;5113700;28;20036;-49
2022/01/01 09:10:24;;;;;;;59.67;34.90;;;11.40;91.20;;;;;;5114595;28;20020;-49
2022/01/01 09:12:53;;;;;;;63.28;36.10;;;11.40;91.20;;;;;;5108786;28;20066;-48
2022/01/01 09:15:20;;;;;;;59.28;35.45;;;11.40;91.10;;;;;;5094358;28;20028;-45
2022/01/01 09:17:49;;;;;;;51.15;30.85;;;11.30;91.10;;;;;;5105875;28;20044;-48
2022/01/01 09:20:16;;;;;;;54.10;29.40;;;11.30;91.00;;;;;;5083621;28;20024;-47
2022/01/01 09:22:42;;;;;;;54.35;28.48;;;11.30;91.10;;;;;;5106829;28;20107;-48
2022/01/01 09:25:09;;;;;;;67.78;31.83;;;11.20;91.10;;;;;;5112678;28;20073;-45
2022/01/01 09:27:35;;;;;;;57.63;30.50;;;11.20;91.40;;;;;;5111881;27;20032;-46
2022/01/01 09:30:02;;;;;;;48.92;27.42;;;11.20;91.40;;;;;;5092590;28;20451;-50
2022/01/01 09:32:28;;;;;;;47.05;28.08;;;11.20;91.50;;;;;;5108642;28;20036;-46
2022/01/01 09:34:55;;;;;;;58.42;29.35;;;11.20;91.60;;;;;;5084243;28;20506;-48
2022/01/01 09:37:24;;;;;;;49.58;28.13;;;11.20;91.70;;;;;;5110609;28;20031;-45
2022/01/01 09:39:49;;;;;;;57.17;29.00;;;11.20;91.70;;;;;;5094382;28;20020;-49
2022/01/01 09:42:20;;;;;;;45.10;26.17;;;11.20;91.70;;;;;;5108959;28;21854;-46
2022/01/01 09:44:47;;;;;;;49.38;28.20;;;11.20;91.70;;;;;;5108379;28;20047;-46
2022/01/01 09:47:15;;;;;;;51.40;26.63;;;11.30;91.70;;;;;;5086326;28;20773;-45
2022/01/01 09:49:42;;;;;;;51.40;27.67;;;11.30;91.80;;;;;;5108417;28;20046;-47
2022/01/01 09:52:14;;;;;;;51.70;26.05;;;11.30;91.90;;;;;;5103089;28;20073;-48
2022/01/01 09:54:41;;;;;;;49.08;25.27;;;11.30;91.80;;;;;;5106008;28;20049;-47
2022/01/01 09:57:10;;;;;;;54.38;26.63;;;11.40;91.80;;;;;;5107431;28;20322;-46
2022/01/01 09:59:38;;;;;;;45.58;23.48;;;11.40;91.70;;;;;;5111330;28;20026;-49
2022/01/01 10:02:05;;;;;;;36.15;22.40;;;11.40;91.60;;;;;;5110025;28;20118;-47
2022/01/01 10:04:45;;;;;;;47.50;23.38;;;11.50;91.70;;;;;;5102089;28;20048;-46
2022/01/01 10:07:13;;;;;;;42.38;21.95;;;11.50;91.60;;;;;;5106501;28;20023;-48
2022/01/01 10:09:42;;;;;;;47.00;22.38;;;11.60;91.50;;;;;;5111104;28;20035;-50
2022/01/01 10:12:14;;;;;;;42.47;21.73;;;11.60;91.50;;;;;;5097212;28;20150;-50
2022/01/01 10:14:45;;;;;;;46.25;21.27;;;11.70;91.50;;;;;;5093085;28;20028;-51
2022/01/01 10:17:22;;;;;;;37.15;23.08;;;11.80;91.40;;;;;;5075793;28;20032;-45
2022/01/01 10:19:53;;;;;;;43.92;22.42;;;11.90;91.30;;;;;;5098934;28;20031;-47
2022/01/01 10:22:21;;;;;;;50.95;21.63;;;11.90;91.20;;;;;;5091900;28;20032;-47
2022/01/01 10:27:59;;;;;;;30.48;19.33;;;12.00;90.90;;;;;;5116260;27;20455;-46
2022/01/01 10:30:43;;;;;;;32.72;18.75;;;12.20;91.40;;;;;;5102763;27;20084;-48
2022/01/01 10:33:17;;;;;;;35.13;19.65;;;12.30;90.80;;;;;;5077247;28;20055;-47
2022/01/01 10:35:53;;;;;;;40.13;20.77;;;12.40;91.20;;;;;;5075163;28;20035;-47
2022/01/01 10:38:38;;;;;;;40.58;22.58;;;12.40;90.60;;;;;;5109292;28;20076;-47
2022/01/01 10:41:09;;;;;;;33.72;20.67;;;12.40;90.30;;;;;;5081976;28;20039;-49
2022/01/01 10:43:37;;;;;;;34.88;19.30;;;12.50;90.10;;;;;;5097083;28;20056;-49
2022/01/01 10:46:05;;;;;;;34.97;21.40;;;12.50;90.00;;;;;;5096544;27;20024;-46
2022/01/01 10:51:07;;;;;;;34.13;18.15;;;12.50;90.10;;;;;;5110676;28;20098;-46
2022/01/01 10:53:35;;;;;;;27.85;17.83;;;12.50;90.10;;;;;;5095460;28;20701;-46
2022/01/01 10:56:19;;;;;;;33.67;19.45;;;12.50;90.20;;;;;;5103540;28;20031;-49
2022/01/01 10:59:03;;;;;;;27.42;18.63;;;12.50;90.10;;;;;;5110097;28;20023;-46
2022/01/01 11:01:33;;;;;;;29.35;18.90;;;12.50;90.00;;;;;;5105409;28;20074;-48
2022/01/01 11:04:01;;;;;;;26.58;18.75;;;12.60;90.20;;;;;;5101937;28;20024;-47
2022/01/01 11:06:32;;;;;;;28.95;17.40;;;12.60;90.30;;;;;;5093414;28;20095;-46
2022/01/01 11:09:00;;;;;;;32.75;20.35;;;12.60;90.30;;;;;;5082788;28;20036;-50
2022/01/01 11:11:28;;;;;;;25.95;18.02;;;12.70;90.30;;;;;;5098660;28;20076;-49
2022/01/01 11:13:55;;;;;;;28.95;19.30;;;12.70;90.10;;;;;;5111478;28;20023;-47
2022/01/01 11:16:22;;;;;;;31.13;17.88;;;12.70;90.10;;;;;;5111711;28;20035;-48
2022/01/01 11:18:51;;;;;;;29.50;18.90;;;12.70;90.10;;;;;;5095896;28;20043;-49
2022/01/01 11:21:20;;;;;;;32.67;20.00;;;12.80;90.10;;;;;;5097750;28;20405;-46
2022/01/01 11:23:48;;;;;;;34.57;22.83;;;12.80;90.10;;;;;;5109534;28;20281;-46
2022/01/01 11:26:15;;;;;;;34.05;22.10;;;12.80;90.10;;;;;;5084884;28;20089;-46
2022/01/01 11:28:42;;;;;;;30.38;19.88;;;12.80;90.40;;;;;;5110421;28;20421;-50
2022/01/01 11:31:18;;;;;;;31.08;22.27;;;12.80;90.10;;;;;;5078784;28;20336;-48
2022/01/01 11:34:00;;;;;;;28.77;19.88;;;12.80;90.00;;;;;;5095558;28;20031;-48
2022/01/01 11:36:29;;;;;;;28.30;19.65;;;12.80;90.20;;;;;;5097052;28;20028;-49
2022/01/01 11:38:58;;;;;;;33.83;20.10;;;12.80;90.00;;;;;;5108256;28;20028;-46
2022/01/01 11:41:24;;;;;;;39.22;23.52;;;12.90;89.90;;;;;;5104390;28;20500;-47
2022/01/01 11:43:53;;;;;;;34.92;23.48;;;12.80;89.90;;;;;;5089326;28;20080;-51
2022/01/01 11:46:54;;;;;;;36.78;21.90;;;12.90;90.00;;;;;;5090989;28;20031;-47
2022/01/01 11:49:29;;;;;;;33.53;22.13;;;12.90;90.10;;;;;;5092631;28;20377;-46
2022/01/01 11:51:58;;;;;;;32.55;22.73;;;12.90;90.10;;;;;;5107668;28;20028;-47
2022/01/01 11:54:38;;;;;;;38.17;22.65;;;12.90;89.90;;;;;;5080993;28;20097;-48
2022/01/01 11:57:27;;;;;;;35.33;23.13;;;12.90;90.00;;;;;;5095098;28;20483;-48
2022/01/01 12:00:12;;;;;;;29.20;22.88;;;12.90;90.00;;;;;;5079058;28;20038;-45
2022/01/01 12:02:46;;;;;;;31.10;23.42;;;12.80;90.10;;;;;;5082483;28;20036;-49
2022/01/01 12:05:15;;;;;;;34.83;23.83;;;12.80;90.20;;;;;;5095546;28;20333;-47
2022/01/01 12:07:51;;;;;;;35.50;24.40;;;12.90;90.00;;;;;;5108075;28;20375;-48
2022/01/01 12:10:30;;;;;;;35.28;23.70;;;12.90;90.00;;;;;;5111859;27;20031;-50
2022/01/01 12:13:01;;;;;;;36.97;23.20;;;12.90;90.00;;;;;;5084839;28;20016;-49
2022/01/01 12:15:39;;;;;;;34.35;24.40;;;12.90;89.90;;;;;;5107446;27;20036;-46
2022/01/01 12:18:13;;;;;;;31.60;23.80;;;12.90;89.90;;;;;;5099450;28;20024;-46
2022/01/01 12:21:01;;;;;;;36.17;24.88;;;12.90;89.90;;;;;;5108161;28;20032;-48
2022/01/01 12:23:31;;;;;;;33.92;22.40;;;13.00;89.70;;;;;;5095000;27;20035;-49
2022/01/01 12:25:58;;;;;;;35.40;22.85;;;13.00;89.70;;;;;;5105900;28;20017;-46
2022/01/01 12:28:32;;;;;;;31.48;23.52;;;13.00;89.50;;;;;;5113341;27;20107;-46
2022/01/01 12:31:22;;;;;;;34.22;23.48;;;13.00;89.50;;;;;;5114304;28;20555;-46
2022/01/01 12:34:01;;;;;;;36.30;23.25;;;13.00;89.40;;;;;;5089811;28;20461;-46
2022/01/01 12:36:31;;;;;;;35.22;25.08;;;12.90;89.50;;;;;;5100735;28;20015;-49
2022/01/01 12:39:05;;;;;;;30.90;22.42;;;13.00;89.70;;;;;;5109683;27;20499;-48
2022/01/01 12:41:34;;;;;;;30.15;22.08;;;12.90;89.70;;;;;;5107837;28;20044;-46